createdAt,value
2022-07-28T00:00:28.965Z,96287.78
2022-07-28T00:02:59.126Z,96284.66
2022-07-28T00:05:27.594Z,96291.22
2022-07-28T00:07:56.445Z,96284.06
2022-07-28T00:10:25.027Z,96287.97
2022-07-28T00:12:53.400Z,96284.06
2022-07-28T00:15:21.776Z,96281.16
2022-07-28T00:17:50.177Z,96279.53
2022-07-28T00:20:21.012Z,96279.72
2022-07-28T00:22:49.346Z,96276.84
2022-07-28T00:25:17.737Z,96277.88
2022-07-28T00:27:46.135Z,96270.03
2022-07-28T00:30:14.936Z,96274.56
2022-07-28T00:32:43.651Z,96270.88
2022-07-28T00:35:12.462Z,96268.19
2022-07-28T00:37:44.949Z,96266.94
2022-07-28T00:40:17.762Z,96268.19
2022-07-28T00:42:46.263Z,96266.78
2022-07-28T00:45:14.733Z,96277.22
2022-07-28T00:47:43.092Z,96273.13
2022-07-28T00:50:13.016Z,96269.00
2022-07-28T00:52:41.673Z,96270.88
2022-07-28T00:55:11.811Z,96268.41
2022-07-28T00:57:41.775Z,96263.28
2022-07-28T01:00:12.240Z,96267.56
2022-07-28T01:02:40.389Z,96267.16
2022-07-28T01:05:09.682Z,96255.41
2022-07-28T01:07:42.393Z,96258.50
2022-07-28T01:10:17.432Z,96265.09
2022-07-28T01:12:51.360Z,96249.84
2022-07-28T01:15:24.708Z,96249.03
2022-07-28T01:18:00.460Z,96249.63
2022-07-28T01:20:33.139Z,96245.53
2022-07-28T01:23:20.962Z,96246.13
2022-07-28T01:26:03.625Z,96253.13
2022-07-28T01:28:45.853Z,96250.88
2022-07-28T01:31:20.613Z,96241.78
2022-07-28T01:33:52.738Z,96244.06
2022-07-28T01:36:24.767Z,96238.94
2022-07-28T01:38:53.370Z,96234.59
2022-07-28T01:41:24.127Z,96236.69
2022-07-28T01:43:57.957Z,96235.41
2022-07-28T01:46:28.560Z,96227.41
2022-07-28T01:48:58.419Z,96228.81
2022-07-28T01:51:29.687Z,96227.00
2022-07-28T01:53:59.911Z,96221.81
2022-07-28T01:56:30.647Z,96213.84
2022-07-28T01:59:01.839Z,96217.13
2022-07-28T02:01:33.601Z,96215.28
2022-07-28T02:04:02.794Z,96216.72
2022-07-28T02:06:31.860Z,96216.94
2022-07-28T02:09:01.249Z,96210.13
2022-07-28T02:11:43.162Z,96218.72
2022-07-28T02:14:14.425Z,96214.66
2022-07-28T02:16:47.169Z,96207.63
2022-07-28T02:19:15.928Z,96209.50
2022-07-28T02:21:47.679Z,96213.53
2022-07-28T02:24:19.912Z,96215.25
2022-07-28T02:26:52.326Z,96211.34
2022-07-28T02:29:49.305Z,96210.09
2022-07-28T02:32:28.161Z,96211.13
2022-07-28T02:35:00.344Z,96218.94
2022-07-28T02:37:35.028Z,96214.22
2022-07-28T02:40:05.178Z,96206.00
2022-07-28T02:42:35.169Z,96201.44
2022-07-28T02:45:06.364Z,96207.38
2022-07-28T02:47:40.175Z,96208.34
2022-07-28T02:50:09.896Z,96211.53
2022-07-28T02:52:38.534Z,96199.13
2022-07-28T02:55:07.964Z,96206.41
2022-07-28T02:57:36.760Z,96206.00
2022-07-28T03:00:06.297Z,96206.19
2022-07-28T03:02:36.793Z,96209.47
2022-07-28T03:05:07.637Z,96201.66
2022-07-28T03:07:47.087Z,96207.84
2022-07-28T03:10:33.590Z,96214.56
2022-07-28T03:13:03.908Z,96212.06
2022-07-28T03:15:33.046Z,96216.19
2022-07-28T03:18:03.758Z,96217.44
2022-07-28T03:20:32.460Z,96217.41
2022-07-28T03:23:00.983Z,96219.88
2022-07-28T03:25:34.193Z,96223.75
2022-07-28T03:28:04.833Z,96223.84
2022-07-28T03:30:36.508Z,96215.78
2022-07-28T03:33:06.966Z,96223.25
2022-07-28T03:35:37.154Z,96228.47
2022-07-28T03:38:09.706Z,96227.91
2022-07-28T03:40:39.065Z,96229.81
2022-07-28T03:43:08.567Z,96232.00
2022-07-28T03:45:40.774Z,96225.50
2022-07-28T03:48:10.958Z,96227.91
2022-07-28T03:50:39.343Z,96226.84
2022-07-28T03:53:20.481Z,96222.09
2022-07-28T03:55:51.015Z,96230.28
2022-07-28T03:58:20.358Z,96232.16
2022-07-28T04:00:49.456Z,96228.84
2022-07-28T04:03:22.075Z,96229.31
2022-07-28T04:06:05.387Z,96223.16
2022-07-28T04:08:33.818Z,96223.03
2022-07-28T04:11:02.253Z,96218.75
2022-07-28T04:13:32.108Z,96219.63
2022-07-28T04:16:00.916Z,96213.19
2022-07-28T04:18:30.718Z,96220.41
2022-07-28T04:20:59.088Z,96214.59
2022-07-28T04:23:27.499Z,96218.25
2022-07-28T04:25:55.917Z,96215.53
2022-07-28T04:28:24.377Z,96213.59
2022-07-28T04:30:52.853Z,96220.44
2022-07-28T04:33:21.323Z,96215.03
2022-07-28T04:35:52.698Z,96208.06
2022-07-28T04:38:21.402Z,96216.06
2022-07-28T04:40:50.377Z,96218.91
2022-07-28T04:43:18.941Z,96225.22
2022-07-28T04:45:53.994Z,96230.91
2022-07-28T04:48:23.524Z,96229.03
2022-07-28T04:50:53.692Z,96229.41
2022-07-28T04:53:22.509Z,96219.72
2022-07-28T04:55:53.446Z,96220.47
2022-07-28T04:58:23.701Z,96222.28
2022-07-28T05:00:52.880Z,96217.69
2022-07-28T05:03:21.673Z,96222.09
2022-07-28T05:05:54.630Z,96221.34
2022-07-28T05:08:26.104Z,96220.06
2022-07-28T05:10:56.648Z,96230.50
2022-07-28T05:13:28.952Z,96224.75
2022-07-28T05:16:01.865Z,96227.56
2022-07-28T05:18:30.322Z,96228.38
2022-07-28T05:20:58.702Z,96236.47
2022-07-28T05:23:28.517Z,96228.91
2022-07-28T05:25:56.892Z,96230.00
2022-07-28T05:28:25.232Z,96228.78
2022-07-28T05:30:54.378Z,96222.78
2022-07-28T05:33:22.841Z,96221.47
2022-07-28T05:35:54.746Z,96218.97
2022-07-28T05:38:23.190Z,96226.97
2022-07-28T05:40:53.195Z,96219.44
2022-07-28T05:43:22.012Z,96231.97
2022-07-28T05:45:50.828Z,96224.34
2022-07-28T05:48:20.148Z,96231.59
2022-07-28T05:50:49.039Z,96222.34
2022-07-28T05:53:17.742Z,96230.66
2022-07-28T05:55:59.534Z,96240.16
2022-07-28T05:58:31.860Z,96237.53
2022-07-28T06:01:01.917Z,96240.34
2022-07-28T06:03:32.050Z,96248.44
2022-07-28T06:06:14.674Z,96242.56
2022-07-28T06:08:46.817Z,96239.81
2022-07-28T06:11:22.162Z,96237.31
2022-07-28T06:13:53.572Z,96236.41
2022-07-28T06:16:23.268Z,96234.28
2022-07-28T06:18:52.263Z,96247.88
2022-07-28T06:21:21.118Z,96236.28
2022-07-28T06:23:49.602Z,96233.03
2022-07-28T06:26:18.120Z,96241.78
2022-07-28T06:28:46.587Z,96235.00
2022-07-28T06:31:16.605Z,96240.84
2022-07-28T06:33:45.085Z,96234.84
2022-07-28T06:36:13.654Z,96242.63
2022-07-28T06:38:42.072Z,96236.25
2022-07-28T06:41:10.528Z,96241.56
2022-07-28T06:43:39.446Z,96240.13
2022-07-28T06:46:08.471Z,96243.00
2022-07-28T06:48:39.504Z,96242.41
2022-07-28T06:51:08.128Z,96251.72
2022-07-28T06:53:37.111Z,96243.44
2022-07-28T06:56:06.580Z,96245.53
2022-07-28T06:58:35.751Z,96236.97
2022-07-28T07:01:07.975Z,96241.84
2022-07-28T07:03:38.214Z,96235.88
2022-07-28T07:06:06.648Z,96237.38
2022-07-28T07:08:35.665Z,96237.41
2022-07-28T07:11:04.278Z,96239.66
2022-07-28T07:13:33.369Z,96237.16
2022-07-28T07:16:01.937Z,96233.91
2022-07-28T07:18:30.444Z,96240.34
2022-07-28T07:21:00.254Z,96239.19
2022-07-28T07:23:28.817Z,96238.88
2022-07-28T07:25:57.531Z,96237.94
2022-07-28T07:28:26.119Z,96218.38
2022-07-28T07:30:54.641Z,96227.44
2022-07-28T07:33:24.533Z,96214.69
2022-07-28T07:35:52.930Z,96211.34
2022-07-28T07:38:27.454Z,96217.16
2022-07-28T07:40:57.700Z,96218.34
2022-07-28T07:43:26.142Z,96209.59
2022-07-28T07:45:55.223Z,96212.53
2022-07-28T07:48:23.654Z,96212.72
2022-07-28T07:50:54.159Z,96204.44
2022-07-28T07:53:24.456Z,96208.41
2022-07-28T07:55:53.231Z,96205.22
2022-07-28T07:58:21.676Z,96203.97
2022-07-28T08:00:50.237Z,96204.75
2022-07-28T08:03:22.679Z,96204.03
2022-07-28T08:05:54.862Z,96208.03
2022-07-28T08:08:25.227Z,96201.31
2022-07-28T08:10:54.398Z,96196.56
2022-07-28T08:13:23.299Z,96196.63
2022-07-28T08:15:52.093Z,96203.59
2022-07-28T08:18:20.598Z,96212.19
2022-07-28T08:20:49.016Z,96205.47
2022-07-28T08:23:19.565Z,96212.34
2022-07-28T08:25:52.730Z,96206.63
2022-07-28T08:28:23.273Z,96214.22
2022-07-28T08:30:52.587Z,96208.34
2022-07-28T08:33:21.871Z,96203.09
2022-07-28T08:35:50.837Z,96208.41
2022-07-28T08:38:19.992Z,96210.63
2022-07-28T08:40:50.856Z,96206.00
2022-07-28T08:43:29.724Z,96191.53
2022-07-28T08:45:58.773Z,96202.06
2022-07-28T08:48:29.722Z,96201.44
2022-07-28T08:51:02.014Z,96194.06
2022-07-28T08:53:30.847Z,96194.44
2022-07-28T08:56:02.800Z,96188.34
2022-07-28T08:58:34.256Z,96192.78
2022-07-28T09:01:02.824Z,96195.41
2022-07-28T09:03:31.331Z,96191.06
2022-07-28T09:05:59.791Z,96199.75
2022-07-28T09:08:28.171Z,96207.81
2022-07-28T09:10:56.690Z,96192.38
2022-07-28T09:13:25.089Z,96202.47
2022-07-28T09:15:55.035Z,96205.63
2022-07-28T09:18:23.470Z,96199.75
2022-07-28T09:20:51.956Z,96202.97
2022-07-28T09:23:43.244Z,96195.03
2022-07-28T09:26:12.324Z,96198.22
2022-07-28T09:28:52.116Z,96198.66
2022-07-28T09:31:23.352Z,96191.63
2022-07-28T09:34:00.840Z,96196.50
2022-07-28T09:36:30.549Z,96200.22
2022-07-28T09:38:59.273Z,96196.31
2022-07-28T09:41:27.814Z,96185.53
2022-07-28T09:43:56.385Z,96187.63
2022-07-28T09:46:29.452Z,96192.19
2022-07-28T09:48:59.939Z,96186.13
2022-07-28T09:51:30.660Z,96187.66
2022-07-28T09:54:10.222Z,96180.97
2022-07-28T09:56:39.696Z,96186.19
2022-07-28T09:59:09.186Z,96179.56
2022-07-28T10:01:53.872Z,96183.56
2022-07-28T10:04:32.905Z,96176.91
2022-07-28T10:07:06.754Z,96172.81
2022-07-28T10:09:35.545Z,96183.44
2022-07-28T10:12:17.609Z,96167.47
2022-07-28T10:14:47.402Z,96172.16
2022-07-28T10:17:29.144Z,96171.63
2022-07-28T10:19:58.740Z,96172.63
2022-07-28T10:22:29.627Z,96167.44
2022-07-28T10:24:59.718Z,96167.22
2022-07-28T10:27:29.437Z,96162.53
2022-07-28T10:29:59.995Z,96163.47
2022-07-28T10:32:30.848Z,96156.50
2022-07-28T10:35:03.798Z,96154.22
2022-07-28T10:37:33.162Z,96153.19
2022-07-28T10:40:10.048Z,96149.94
2022-07-28T10:45:48.115Z,96149.44
2022-07-28T10:48:16.917Z,96144.75
2022-07-28T10:50:45.583Z,96147.66
2022-07-28T10:53:22.105Z,96138.78
2022-07-28T10:55:54.354Z,96141.38
2022-07-28T10:58:27.776Z,96147.28
2022-07-28T11:00:59.921Z,96145.31
2022-07-28T11:03:40.800Z,96146.53
2022-07-28T11:06:26.319Z,96148.41
2022-07-28T11:08:55.988Z,96149.97
2022-07-28T11:11:46.980Z,96152.97
2022-07-28T11:14:37.671Z,96147.72
2022-07-28T11:17:16.949Z,96141.06
2022-07-28T11:22:46.777Z,96147.88
2022-07-28T11:25:18.771Z,96145.97
2022-07-28T11:28:06.149Z,96140.53
2022-07-28T11:30:55.008Z,96134.81
2022-07-28T11:33:25.095Z,96138.09
2022-07-28T11:35:57.208Z,96132.66
2022-07-28T11:38:25.810Z,96131.31
2022-07-28T11:40:56.129Z,96144.09
2022-07-28T11:43:36.302Z,96137.81
2022-07-28T11:46:37.664Z,96129.09
2022-07-28T11:49:30.917Z,96139.19
2022-07-28T11:52:21.671Z,96133.22
2022-07-28T11:54:55.729Z,96121.22
2022-07-28T11:57:27.974Z,96125.59
2022-07-28T12:00:01.997Z,96118.22
2022-07-28T12:02:32.527Z,96123.19
2022-07-28T12:05:09.749Z,96119.38
2022-07-28T12:07:45.620Z,96123.72
2022-07-28T12:13:28.584Z,96119.28
2022-07-28T12:15:57.212Z,96114.19
2022-07-28T12:18:25.800Z,96115.56
2022-07-28T12:20:55.669Z,96113.06
2022-07-28T12:23:44.103Z,96111.03
2022-07-28T12:26:14.530Z,96110.66
2022-07-28T12:28:51.371Z,96106.03
2022-07-28T12:31:19.846Z,96098.34
2022-07-28T12:33:53.640Z,96102.53
2022-07-28T12:36:24.246Z,96093.53
2022-07-28T12:38:54.468Z,96095.88
2022-07-28T12:41:23.909Z,96098.19
2022-07-28T12:43:53.294Z,96094.75
2022-07-28T12:46:23.688Z,96095.38
2022-07-28T12:48:57.801Z,96094.44
2022-07-28T12:51:33.969Z,96090.06
2022-07-28T12:54:05.545Z,96095.13
2022-07-28T12:56:45.344Z,96091.53
2022-07-28T12:59:14.616Z,96090.19
2022-07-28T13:01:50.076Z,96084.06
2022-07-28T13:04:19.451Z,96088.28
2022-07-28T13:06:57.482Z,96080.09
2022-07-28T13:09:32.993Z,96083.25
2022-07-28T13:12:04.119Z,96081.16
2022-07-28T13:14:41.635Z,96074.94
2022-07-28T13:17:11.255Z,96080.94
2022-07-28T13:19:39.876Z,96075.03
2022-07-28T13:22:09.222Z,96072.78
2022-07-28T13:24:39.360Z,96073.19
2022-07-28T13:27:08.931Z,96065.06
2022-07-28T13:29:37.710Z,96075.31
2022-07-28T13:32:06.713Z,96062.84
2022-07-28T13:34:35.497Z,96053.91
2022-07-28T13:37:04.600Z,96069.38
2022-07-28T13:39:33.013Z,96067.47
2022-07-28T13:42:05.683Z,96064.41
2022-07-28T13:44:35.221Z,96061.75
2022-07-28T13:47:05.996Z,96061.97
2022-07-28T13:49:37.469Z,96057.78
2022-07-28T13:52:07.105Z,96064.72
2022-07-28T13:54:41.789Z,96052.72
2022-07-28T13:57:12.362Z,96053.66
2022-07-28T13:59:42.248Z,96041.13
2022-07-28T14:02:15.197Z,96053.38
2022-07-28T14:04:50.168Z,96051.88
2022-07-28T14:07:21.096Z,96050.00
2022-07-28T14:09:51.287Z,96048.75
2022-07-28T14:12:21.071Z,96049.44
2022-07-28T14:14:49.484Z,96050.06
2022-07-28T14:20:12.174Z,96039.38
2022-07-28T14:22:40.602Z,96034.22
2022-07-28T14:25:09.675Z,96036.06
2022-07-28T14:27:41.255Z,96029.16
2022-07-28T14:30:11.001Z,96030.38
2022-07-28T14:32:40.478Z,96018.47
2022-07-28T14:35:09.370Z,96030.50
2022-07-28T14:38:11.176Z,96026.84
2022-07-28T14:40:26.584Z,96030.47
2022-07-28T14:42:56.354Z,96020.50
2022-07-28T14:45:24.873Z,96026.97
2022-07-28T14:47:55.200Z,96030.91
2022-07-28T14:50:23.750Z,96022.81
2022-07-28T14:52:52.577Z,96014.56
2022-07-28T14:55:21.295Z,96014.16
2022-07-28T14:57:54.661Z,96021.06
2022-07-28T15:00:28.220Z,96015.06
2022-07-28T15:02:56.768Z,96004.78
2022-07-28T15:05:25.514Z,96000.44
2022-07-28T15:07:53.878Z,95999.22
2022-07-28T15:10:22.309Z,95995.09
2022-07-28T15:12:52.018Z,96002.06
2022-07-28T15:15:26.440Z,95996.94
2022-07-28T15:17:57.496Z,96003.84
2022-07-28T15:20:26.096Z,95997.56
2022-07-28T15:22:54.506Z,95995.09
2022-07-28T15:25:23.026Z,95990.44
2022-07-28T15:27:51.418Z,95989.47
2022-07-28T15:30:19.943Z,95990.53
2022-07-28T15:32:56.961Z,95995.28
2022-07-28T15:35:27.598Z,95997.34
2022-07-28T15:37:56.142Z,95990.16
2022-07-28T15:40:25.298Z,95996.50
2022-07-28T15:42:54.050Z,95994.66
2022-07-28T15:45:25.919Z,95981.13
2022-07-28T15:47:55.714Z,95980.09
2022-07-28T15:50:24.537Z,95983.78
2022-07-28T15:52:54.308Z,95980.56
2022-07-28T15:55:22.678Z,95981.91
2022-07-28T15:57:51.659Z,95980.13
2022-07-28T16:00:20.674Z,95977.88
2022-07-28T16:02:50.439Z,95972.28
2022-07-28T16:05:18.957Z,95973.44
2022-07-28T16:07:47.353Z,95982.25
2022-07-28T16:10:17.270Z,95970.91
2022-07-28T16:15:32.221Z,95969.81
2022-07-28T16:18:00.597Z,95968.63
2022-07-28T16:20:30.117Z,95974.66
2022-07-28T16:22:58.785Z,95971.72
2022-07-28T16:25:29.050Z,95968.63
2022-07-28T16:27:57.947Z,95962.66
2022-07-28T16:30:26.371Z,95965.78
2022-07-28T16:32:54.893Z,95968.84
2022-07-28T16:35:23.508Z,95969.00
2022-07-28T16:37:52.161Z,95977.84
2022-07-28T16:40:20.662Z,95978.28
2022-07-28T16:42:52.202Z,95981.03
2022-07-28T16:45:20.700Z,95985.66
2022-07-28T16:47:49.060Z,95985.19
2022-07-28T16:50:18.957Z,95993.28
2022-07-28T16:52:47.484Z,95984.63
2022-07-28T16:55:20.067Z,95984.25
2022-07-28T16:57:53.630Z,95974.72
2022-07-28T17:00:25.635Z,95971.81
2022-07-28T17:02:54.626Z,95979.28
2022-07-28T17:05:23.614Z,95976.69
2022-07-28T17:07:54.088Z,95974.91
2022-07-28T17:10:27.206Z,95972.28
2022-07-28T17:12:58.661Z,95974.53
2022-07-28T17:15:27.227Z,95972.88
2022-07-28T17:17:56.641Z,95970.91
2022-07-28T17:20:25.524Z,95974.72
2022-07-28T17:22:53.981Z,95977.56
2022-07-28T17:25:47.239Z,95976.00
2022-07-28T17:28:12.492Z,95973.31
2022-07-28T17:30:41.663Z,95975.97
2022-07-28T17:33:10.077Z,95981.44
2022-07-28T17:35:39.203Z,95981.16
2022-07-28T17:38:09.633Z,95986.63
2022-07-28T17:40:39.595Z,95990.69
2022-07-28T17:43:08.794Z,95990.94
2022-07-28T17:45:38.860Z,95991.47
2022-07-28T17:48:07.710Z,95990.47
2022-07-28T17:50:36.197Z,95997.38
2022-07-28T17:53:04.710Z,96001.59
2022-07-28T17:55:57.533Z,95992.97
2022-07-28T17:58:29.158Z,96001.69
2022-07-28T18:01:11.054Z,96008.69
2022-07-28T18:03:56.776Z,96015.50
2022-07-28T18:06:30.628Z,96018.16
2022-07-28T18:09:05.759Z,96019.88
2022-07-28T18:11:57.932Z,96022.66
2022-07-28T18:14:28.310Z,96030.69
2022-07-28T18:16:58.348Z,96038.38
2022-07-28T18:19:26.559Z,96030.50
2022-07-28T18:21:55.902Z,96037.34
2022-07-28T18:24:24.580Z,96035.94
2022-07-28T18:26:53.630Z,96044.94
2022-07-28T18:29:22.712Z,96051.47
2022-07-28T18:31:52.055Z,96046.31
2022-07-28T18:34:23.510Z,96043.56
2022-07-28T18:36:54.328Z,96044.41
2022-07-28T18:39:22.901Z,96040.03
2022-07-28T18:41:51.497Z,96046.28
2022-07-28T18:44:20.628Z,96051.63
2022-07-28T18:46:49.473Z,96055.94
2022-07-28T18:49:18.183Z,96051.66
2022-07-28T18:51:49.387Z,96053.47
2022-07-28T18:54:27.021Z,96050.78
2022-07-28T18:56:56.303Z,96044.25
2022-07-28T18:59:24.755Z,96044.88
2022-07-28T19:01:53.547Z,96033.66
2022-07-28T19:04:22.122Z,96028.75
2022-07-28T19:06:52.309Z,96030.81
2022-07-28T19:09:20.508Z,96031.75
2022-07-28T19:11:48.904Z,96051.28
2022-07-28T19:14:18.226Z,96052.56
2022-07-28T19:16:47.016Z,96056.03
2022-07-28T19:19:15.815Z,96053.31
2022-07-28T19:21:44.298Z,96062.91
2022-07-28T19:24:15.281Z,96063.28
2022-07-28T19:26:45.412Z,96061.44
2022-07-28T19:29:13.946Z,96059.09
2022-07-28T19:31:42.468Z,96061.66
2022-07-28T19:34:11.513Z,96061.41
2022-07-28T19:36:41.706Z,96073.88
2022-07-28T19:39:10.495Z,96069.25
2022-07-28T19:41:40.391Z,96063.63
2022-07-28T19:44:08.758Z,96061.06
2022-07-28T19:46:37.966Z,96060.25
2022-07-28T19:49:08.082Z,96059.41
2022-07-28T19:51:36.763Z,96070.06
2022-07-28T19:54:05.475Z,96067.66
2022-07-28T19:56:33.880Z,96064.59
2022-07-28T19:59:04.147Z,96064.56
2022-07-28T20:01:32.548Z,96063.34
2022-07-28T20:04:05.340Z,96060.88
2022-07-28T20:06:34.548Z,96061.88
2022-07-28T20:09:03.723Z,96068.53
2022-07-28T20:11:33.001Z,96071.41
2022-07-28T20:14:03.480Z,96071.53
2022-07-28T20:16:31.686Z,96068.09
2022-07-28T20:19:00.082Z,96071.31
2022-07-28T20:21:28.488Z,96073.75
2022-07-28T20:23:58.786Z,96072.16
2022-07-28T20:26:28.294Z,96075.34
2022-07-28T20:28:58.385Z,96079.06
2022-07-28T20:31:28.409Z,96081.31
2022-07-28T20:33:56.934Z,96086.44
2022-07-28T20:36:29.714Z,96086.66
2022-07-28T20:38:58.500Z,96094.97
2022-07-28T20:41:27.085Z,96094.06
2022-07-28T20:44:26.238Z,96098.16
2022-07-28T20:46:45.260Z,96098.06
2022-07-28T20:49:13.662Z,96093.34
2022-07-28T20:51:50.604Z,96092.44
2022-07-28T20:54:19.560Z,96095.75
2022-07-28T20:56:48.049Z,96091.94
2022-07-28T20:59:16.580Z,96089.34
2022-07-28T21:01:46.508Z,96092.34
2022-07-28T21:04:15.353Z,96096.13
2022-07-28T21:06:51.695Z,96105.38
2022-07-28T21:09:21.373Z,96103.22
2022-07-28T21:11:49.755Z,96112.31
2022-07-28T21:14:18.704Z,96107.22
2022-07-28T21:16:48.910Z,96106.34
2022-07-28T21:19:17.300Z,96112.34
2022-07-28T21:21:45.649Z,96123.09
2022-07-28T21:24:14.277Z,96127.09
2022-07-28T21:26:43.061Z,96128.28
2022-07-28T21:32:04.679Z,96141.75
2022-07-28T21:34:35.896Z,96153.59
2022-07-28T21:37:04.885Z,96157.13
2022-07-28T21:39:33.780Z,96168.31
2022-07-28T21:42:04.698Z,96173.31
2022-07-28T21:44:36.133Z,96185.53
2022-07-28T21:47:04.724Z,96187.66
2022-07-28T21:49:33.287Z,96197.50
2022-07-28T21:52:03.115Z,96204.09
2022-07-28T21:54:31.537Z,96209.69
2022-07-28T21:56:59.920Z,96218.88
2022-07-28T21:59:28.337Z,96217.31
2022-07-28T22:01:56.964Z,96220.75
2022-07-28T22:04:25.838Z,96218.72
2022-07-28T22:06:54.589Z,96230.81
2022-07-28T22:09:24.523Z,96234.56
2022-07-28T22:11:52.997Z,96233.03
2022-07-28T22:14:21.494Z,96230.91
2022-07-28T22:16:50.596Z,96234.00
2022-07-28T22:19:19.079Z,96233.03
2022-07-28T22:21:47.829Z,96238.06
2022-07-28T22:24:17.187Z,96236.41
2022-07-28T22:26:47.180Z,96238.84
2022-07-28T22:29:15.637Z,96241.81
2022-07-28T22:31:44.498Z,96241.03
2022-07-28T22:34:13.362Z,96254.00
2022-07-28T22:36:42.007Z,96250.34
2022-07-28T22:39:10.538Z,96252.66
2022-07-28T22:41:38.926Z,96254.00
2022-07-28T22:44:10.259Z,96249.25
2022-07-28T22:46:38.780Z,96247.84
2022-07-28T22:49:07.283Z,96253.84
2022-07-28T22:51:35.884Z,96238.28
2022-07-28T22:54:04.450Z,96242.75
2022-07-28T22:56:35.085Z,96247.28
2022-07-28T22:59:06.555Z,96243.94
2022-07-28T23:01:36.588Z,96235.78
2022-07-28T23:04:05.400Z,96235.38
2022-07-28T23:06:35.966Z,96237.19
2022-07-28T23:09:04.596Z,96234.75
2022-07-28T23:11:32.973Z,96236.94
2022-07-28T23:14:01.416Z,96235.56
2022-07-28T23:16:30.096Z,96236.25
2022-07-28T23:19:00.465Z,96244.50
2022-07-28T23:21:28.672Z,96240.97
2022-07-28T23:23:57.122Z,96241.78
2022-07-28T23:26:25.605Z,96237.44
2022-07-28T23:28:54.251Z,96234.63
2022-07-28T23:31:22.785Z,96245.97
2022-07-28T23:33:55.195Z,96241.09
2022-07-28T23:36:27.993Z,96240.50
2022-07-28T23:38:58.305Z,96238.28
2022-07-28T23:41:27.682Z,96235.09
2022-07-28T23:43:56.190Z,96246.81
2022-07-28T23:46:25.048Z,96236.16
2022-07-28T23:48:53.593Z,96230.56
2022-07-28T23:51:31.925Z,96225.03
2022-07-28T23:54:14.663Z,96228.81
2022-07-28T23:56:43.715Z,96230.44
2022-07-28T23:59:14.464Z,96226.28
